Time;durP1;ratioP1;P1;durP2;ratioP2;P2;SDS_P1;SDS_P2;PMS_P1;PMS_P2;Temp;Humidity;BMP_temperature;BMP_pressure;BME280_temperature;BME280_humidity;BME280_pressure;Samples;Min_cycle;Max_cycle;Signal;HPM_P1;HPM_P2
2024/01/02 00:01:23;;;;;;;12.90;5.00;;;;;;;17.44;36.66;99107.44;105201;1251;62473;-58
2024/01/02 00:03:50;;;;;;;24.70;17.50;;;;;;;17.45;36.60;99106.26;106745;1251;60363;-58
2024/01/02 00:06:18;;;;;;;13.80;6.80;;;;;;;17.42;36.57;99103.08;105527;1255;60140;-59
2024/01/02 00:08:46;;;;;;;15.90;7.40;;;;;;;17.36;36.71;99103.35;105373;1251;65003;-56
2024/01/02 00:11:14;;;;;;;15.00;6.20;;;;;;;17.31;36.77;99106.08;105407;1251;61870;-59
2024/01/02 00:13:42;;;;;;;14.50;7.90;;;;;;;17.28;36.68;99108.46;105369;1257;62451;-62
2024/01/02 00:16:09;;;;;;;24.30;17.00;;;;;;;17.19;36.80;99104.58;105507;1256;60539;-59
2024/01/02 00:18:37;;;;;;;13.90;7.30;;;;;;;17.13;36.87;99105.61;105492;1250;60565;-58
2024/01/02 00:21:05;;;;;;;13.70;6.40;;;;;;;17.13;36.86;99101.48;105819;1251;65003;-60
2024/01/02 00:23:32;;;;;;;22.40;15.80;;;;;;;17.16;36.78;99101.91;105541;1256;61276;-61
2024/01/02 00:26:00;;;;;;;10.70;5.60;;;;;;;17.17;36.78;99098.89;106750;1251;64396;-55
2024/01/02 00:28:28;;;;;;;23.20;17.40;;;;;;;17.14;36.86;99096.55;105455;1251;60572;-55
2024/01/02 00:30:55;;;;;;;13.50;6.70;;;;;;;17.14;36.84;99096.91;105416;1257;60411;-57
2024/01/02 00:33:23;;;;;;;19.40;8.30;;;;;;;17.16;36.84;99098.07;105934;1251;64899;-55
2024/01/02 00:35:51;;;;;;;14.30;5.50;;;;;;;17.15;36.83;99094.38;105521;1257;60447;-58
2024/01/02 00:38:19;;;;;;;21.40;15.30;;;;;;;17.19;36.83;99097.31;105520;1251;62453;-57
2024/01/02 00:40:47;;;;;;;14.50;5.60;;;;;;;17.25;36.76;99093.52;106186;1253;60543;-55
2024/01/02 00:43:15;;;;;;;12.70;6.30;;;;;;;17.30;36.66;99093.74;105550;1251;61135;-55
2024/01/02 00:45:42;;;;;;;20.20;14.30;;;;;;;17.35;36.62;99094.34;105433;1251;64904;-60
2024/01/02 00:48:10;;;;;;;10.70;4.60;;;;;;;17.36;36.65;99086.83;105551;1251;61402;-56
2024/01/02 00:50:39;;;;;;;11.40;5.10;;;;;;;17.36;36.58;99085.80;105505;1256;63712;-58
2024/01/02 00:53:06;;;;;;;11.70;4.70;;;;;;;17.35;36.45;99088.90;105911;1251;60488;-57
2024/01/02 00:55:34;;;;;;;20.10;13.10;;;;;;;17.40;36.41;99077.67;105719;1254;60576;-57
2024/01/02 00:58:03;;;;;;;10.00;3.90;;;;;;;17.46;36.25;99075.13;105563;1251;64997;-58
2024/01/02 01:00:31;;;;;;;15.10;10.50;;;;;;;17.53;36.09;99080.63;105827;1251;61525;-55
2024/01/02 01:02:59;;;;;;;11.80;5.00;;;;;;;17.51;35.89;99082.05;105902;1251;64260;-56
2024/01/02 01:05:26;;;;;;;7.70;4.40;;;;;;;17.49;35.73;99076.81;105856;1254;60514;-56
2024/01/02 01:07:54;;;;;;;12.60;9.10;;;;;;;17.48;35.63;99075.20;105594;1251;60453;-57
2024/01/02 01:10:22;;;;;;;7.40;3.00;;;;;;;17.48;35.59;99072.88;106127;1257;64899;-57
2024/01/02 01:12:51;;;;;;;8.10;4.10;;;;;;;17.48;35.49;99076.92;106111;1251;61866;-57
2024/01/02 01:15:19;;;;;;;10.80;6.60;;;;;;;17.47;35.36;99078.14;105546;1251;63750;-57
2024/01/02 01:17:46;;;;;;;8.00;3.40;;;;;;;17.52;35.27;99082.59;105570;1251;60917;-57
2024/01/02 01:20:14;;;;;;;11.20;5.50;;;;;;;17.59;35.14;99081.17;105381;1252;60367;-58
2024/01/02 01:22:42;;;;;;;6.30;2.20;;;;;;;17.59;34.93;99075.20;105500;1251;64955;-57
2024/01/02 01:25:10;;;;;;;4.20;1.30;;;;;;;17.55;34.91;99077.98;105500;1251;61356;-56
2024/01/02 01:27:37;;;;;;;8.60;4.50;;;;;;;17.52;34.79;99074.89;105422;1254;63726;-56
2024/01/02 01:30:06;;;;;;;5.60;1.40;;;;;;;17.48;34.81;99071.81;105500;1256;60568;-56
2024/01/02 01:32:34;;;;;;;4.80;1.30;;;;;;;17.45;34.80;99072.35;105634;1251;60789;-53
2024/01/02 01:35:03;;;;;;;5.10;1.60;;;;;;;17.45;34.80;99073.41;105663;1250;65047;-57
2024/01/02 01:37:31;;;;;;;5.50;2.10;;;;;;;17.53;34.69;99069.94;106011;1251;61320;-55
2024/01/02 01:40:00;;;;;;;3.90;0.80;;;;;;;17.57;34.50;99071.35;105467;1256;63688;-57
2024/01/02 01:42:28;;;;;;;3.20;1.00;;;;;;;17.57;34.47;99070.98;105878;1252;60645;-58
2024/01/02 01:44:56;;;;;;;6.00;2.00;;;;;;;17.55;34.50;99068.23;105558;1251;60584;-58
2024/01/02 01:47:23;;;;;;;2.90;0.80;;;;;;;17.52;34.44;99061.60;105387;1251;63693;-57
2024/01/02 01:49:51;;;;;;;3.30;0.90;;;;;;;17.49;34.41;99054.97;105859;1256;60497;-55
2024/01/02 01:52:19;;;;;;;4.10;1.60;;;;;;;17.47;34.49;99054.91;106007;1254;63961;-57
2024/01/02 01:54:47;;;;;;;3.50;0.60;;;;;;;17.43;34.39;99053.48;105345;1254;60630;-55
2024/01/02 01:57:14;;;;;;;2.10;0.50;;;;;;;17.47;34.43;99055.66;105595;1257;60891;-61
2024/01/02 01:59:43;;;;;;;3.80;1.10;;;;;;;17.52;34.30;99057.84;105353;1251;64959;-58
2024/01/02 02:02:11;;;;;;;2.20;0.60;;;;;;;17.58;34.42;99054.58;105399;1255;60429;-57
2024/01/02 02:04:44;;;;;;;5.20;1.00;;;;;;;17.56;34.07;99053.75;105367;1254;63801;-61
2024/01/02 02:07:11;;;;;;;4.20;1.20;;;;;;;17.47;34.08;99056.67;105690;1253;60567;-56
2024/01/02 02:09:39;;;;;;;2.10;0.40;;;;;;;17.34;34.06;99047.27;105445;1251;60421;-57
2024/01/02 02:12:07;;;;;;;3.30;0.70;;;;;;;17.26;34.02;99054.98;105513;1253;65453;-57
2024/01/02 02:14:34;;;;;;;1.40;0.20;;;;;;;17.13;33.92;99047.44;105485;1256;60430;-57
2024/01/02 02:17:02;;;;;;;2.80;0.60;;;;;;;17.13;33.96;99044.09;106047;1251;63875;-57
2024/01/02 02:19:30;;;;;;;2.30;0.30;;;;;;;17.11;34.01;99046.44;105504;1256;60585;-56
2024/01/02 02:21:58;;;;;;;0.60;0.20;;;;;;;17.16;33.95;99040.37;105274;1251;333405;-57
2024/01/02 02:26:02;;;;;;;2.90;0.40;;;;;;;15.20;37.30;99043.42;102493;1294;599788;-58
2024/01/02 02:28:30;;;;;;;2.00;0.40;;;;;;;16.77;34.39;99038.04;105383;1258;59401;-57
2024/01/02 02:30:58;;;;;;;2.40;0.80;;;;;;;16.99;33.93;99033.80;104857;1264;59351;-60
2024/01/02 02:33:26;;;;;;;2.20;0.50;;;;;;;17.02;33.61;99031.72;104964;1260;63317;-59
2024/01/02 02:35:54;;;;;;;4.20;1.10;;;;;;;16.98;33.62;99030.92;104980;1264;61464;-62
2024/01/02 02:38:21;;;;;;;1.10;0.60;;;;;;;16.98;33.68;99021.36;104918;1263;62536;-57
2024/01/02 02:40:49;;;;;;;4.80;1.00;;;;;;;17.01;33.51;99021.34;104274;1258;1184185;-59
2024/01/02 02:43:16;;;;;;;1.00;0.20;;;;;;;16.98;33.28;99027.42;105944;1257;59285;-56
2024/01/02 02:45:44;;;;;;;1.20;0.20;;;;;;;16.99;33.34;99020.30;105257;1260;63786;-60
2024/01/02 02:48:12;;;;;;;0.60;0.20;;;;;;;17.03;33.31;99019.63;105290;1254;62035;-59
2024/01/02 02:50:40;;;;;;;1.00;0.20;;;;;;;17.05;33.18;99020.48;105194;1260;63753;-59
2024/01/02 02:53:08;;;;;;;4.00;0.70;;;;;;;17.04;33.07;99018.25;105380;1263;60207;-58
2024/01/02 02:55:36;;;;;;;1.40;0.40;;;;;;;17.04;33.18;99017.25;105261;1271;60432;-60
2024/01/02 02:58:03;;;;;;;1.00;0.30;;;;;;;17.02;33.18;99010.42;105300;1261;64044;-60
2024/01/02 03:00:34;;;;;;;2.30;0.50;;;;;;;16.97;33.23;99010.16;105167;1257;61772;-61
2024/01/02 03:03:03;;;;;;;1.40;0.30;;;;;;;16.94;33.26;99009.00;105608;1258;63726;-62
2024/01/02 03:05:30;;;;;;;1.30;0.40;;;;;;;16.90;33.34;99001.46;105266;1260;60086;-65
2024/01/02 03:07:58;;;;;;;0.90;0.10;;;;;;;16.89;33.33;99000.92;105552;1263;59366;-63
2024/01/02 03:10:26;;;;;;;2.10;0.60;;;;;;;16.89;33.26;99000.52;105226;1260;63281;-64
2024/01/02 03:12:53;;;;;;;1.70;0.20;;;;;;;16.92;33.33;98996.94;105265;1257;61388;-60
2024/01/02 03:15:21;;;;;;;0.60;0.20;;;;;;;16.95;33.24;98995.69;104946;1257;71737;-61
2024/01/02 03:17:49;;;;;;;0.90;0.30;;;;;;;16.95;33.25;98998.83;104967;1259;59775;-58
2024/01/02 03:20:17;;;;;;;1.90;0.40;;;;;;;16.92;33.29;99000.91;105016;1261;59792;-61
2024/01/02 03:22:44;;;;;;;2.20;0.20;;;;;;;16.90;33.31;98997.06;105115;1261;64115;-60
2024/01/02 03:25:12;;;;;;;2.20;0.60;;;;;;;16.85;33.33;99000.12;104985;1260;61351;-62
2024/01/02 03:27:39;;;;;;;0.80;0.30;;;;;;;16.82;33.36;98998.19;105039;1254;64210;-61
2024/01/02 03:30:08;;;;;;;1.00;0.30;;;;;;;16.81;33.28;99000.49;105170;1261;59736;-60
2024/01/02 03:32:35;;;;;;;0.90;0.10;;;;;;;16.79;33.33;98997.20;105947;1255;59717;-60
2024/01/02 03:35:04;;;;;;;1.60;0.20;;;;;;;16.84;33.32;98995.98;105270;1262;64178;-58
2024/01/02 03:37:31;;;;;;;1.50;0.30;;;;;;;16.91;33.19;98996.56;105393;1257;61807;-60
2024/01/02 03:39:59;;;;;;;2.90;0.50;;;;;;;17.00;33.25;98994.40;105440;1262;63697;-58
2024/01/02 03:42:26;;;;;;;1.70;0.30;;;;;;;17.02;33.24;98995.75;105092;1259;59740;-59
2024/01/02 03:44:54;;;;;;;2.20;0.50;;;;;;;16.99;33.04;98995.77;105167;1257;59727;-62
2024/01/02 03:47:21;;;;;;;1.70;0.20;;;;;;;16.90;32.95;99002.36;105227;1261;63163;-59
2024/01/02 03:49:49;;;;;;;0.70;0.20;;;;;;;16.85;33.04;98991.14;105141;1258;61899;-55
2024/01/02 03:52:17;;;;;;;1.00;0.20;;;;;;;16.84;33.29;98990.48;105911;1263;64072;-55
2024/01/02 03:54:45;;;;;;;2.30;0.60;;;;;;;16.77;33.17;98997.94;105078;1257;59698;-64
2024/01/02 03:57:12;;;;;;;0.60;0.10;;;;;;;16.67;33.12;98997.31;105256;1257;59675;-62
2024/01/02 03:59:40;;;;;;;0.50;0.00;;;;;;;16.74;33.24;98993.42;105143;1261;64187;-61
2024/01/02 04:02:07;;;;;;;0.60;0.10;;;;;;;16.72;33.23;99001.63;105277;1257;61294;-61
2024/01/02 04:04:38;;;;;;;0.70;0.20;;;;;;;16.71;33.26;98992.04;105374;1260;62475;-63
2024/01/02 04:07:05;;;;;;;0.60;0.20;;;;;;;16.74;33.21;98988.58;105263;1257;59597;-59
2024/01/02 04:09:33;;;;;;;1.60;0.30;;;;;;;16.67;33.29;98996.95;105439;1257;59579;-63
2024/01/02 04:12:01;;;;;;;0.80;0.10;;;;;;;16.52;33.36;98992.50;105209;1261;65048;-60
2024/01/02 04:14:28;;;;;;;1.10;0.30;;;;;;;16.53;33.48;98991.06;105563;1257;61354;-59
2024/01/02 04:16:56;;;;;;;0.70;0.20;;;;;;;16.52;33.59;98998.54;105150;1258;64193;-60
2024/01/02 04:19:24;;;;;;;1.90;0.40;;;;;;;16.50;33.55;98999.77;105042;1260;61067;-57
2024/01/02 04:21:52;;;;;;;2.10;0.50;;;;;;;16.50;33.62;99005.11;105185;1257;59669;-57
2024/01/02 04:24:19;;;;;;;0.20;0.00;;;;;;;16.56;33.59;99003.71;105850;1256;64179;-61
2024/01/02 04:26:47;;;;;;;1.40;0.10;;;;;;;16.57;33.50;99005.39;105133;1257;61337;-62
2024/01/02 04:29:14;;;;;;;1.80;0.50;;;;;;;16.53;33.56;99013.38;105149;1264;63719;-62
2024/01/02 04:31:42;;;;;;;0.80;0.10;;;;;;;16.45;33.53;99019.61;105350;1257;59749;-66
2024/01/02 04:34:10;;;;;;;0.20;0.10;;;;;;;16.39;33.42;99024.77;105045;1255;59608;-63
2024/01/02 04:36:40;;;;;;;1.60;0.20;;;;;;;16.35;33.39;99021.35;105427;1258;62845;-63
2024/01/02 04:39:08;;;;;;;1.80;0.40;;;;;;;16.32;33.46;99021.45;105469;1257;61345;-59
2024/01/02 04:41:35;;;;;;;0.70;0.10;;;;;;;16.34;33.58;99023.55;105112;1257;63789;-58
2024/01/02 04:44:03;;;;;;;0.50;0.10;;;;;;;16.39;33.49;99033.98;105113;1258;59635;-59
2024/01/02 04:46:31;;;;;;;0.40;0.00;;;;;;;16.47;33.40;99025.23;106227;1256;59425;-60
2024/01/02 04:48:59;;;;;;;0.60;0.10;;;;;;;16.51;33.46;99024.93;105327;1255;62823;-60
2024/01/02 04:51:28;;;;;;;1.10;0.30;;;;;;;16.55;33.46;99022.38;106226;1262;60086;-61
2024/01/02 04:53:56;;;;;;;1.30;0.20;;;;;;;16.55;33.61;99031.24;105658;1258;63772;-63
2024/01/02 04:56:23;;;;;;;1.30;0.30;;;;;;;16.51;33.76;99029.75;105199;1257;59768;-62
2024/01/02 04:58:51;;;;;;;0.40;0.10;;;;;;;16.41;33.69;99034.70;105259;1260;59536;-59
2024/01/02 05:01:19;;;;;;;2.10;0.40;;;;;;;16.35;33.82;99044.26;105151;1257;64055;-62
2024/01/02 05:03:46;;;;;;;0.10;0.00;;;;;;;16.23;34.02;99046.25;105258;1257;61306;-60
2024/01/02 05:06:14;;;;;;;1.10;0.20;;;;;;;16.27;33.96;99044.36;105163;1257;63737;-59
2024/01/02 05:08:42;;;;;;;1.80;0.40;;;;;;;16.32;34.04;99050.73;105185;1258;59828;-63
2024/01/02 05:11:10;;;;;;;0.50;0.10;;;;;;;16.32;34.20;99043.29;105245;1259;60339;-62
2024/01/02 05:13:38;;;;;;;1.30;0.80;;;;;;;16.29;34.15;99045.67;105342;1258;64081;-62
2024/01/02 05:16:08;;;;;;;0.80;0.20;;;;;;;16.25;34.08;99050.75;105322;1257;69168;-62
2024/01/02 05:18:36;;;;;;;1.40;0.30;;;;;;;16.09;34.33;99056.58;105233;1257;63737;-59
2024/01/02 05:21:04;;;;;;;1.10;0.40;;;;;;;16.01;34.26;99066.27;105114;1257;59938;-60
2024/01/02 05:23:31;;;;;;;1.70;0.20;;;;;;;15.91;34.30;99072.83;105545;1257;59823;-61
2024/01/02 05:25:59;;;;;;;1.40;0.80;;;;;;;15.92;34.48;99078.06;105083;1262;64038;-59
2024/01/02 05:28:27;;;;;;;2.10;0.60;;;;;;;15.91;34.37;99077.84;105137;1260;60094;-59
2024/01/02 05:30:54;;;;;;;2.90;0.90;;;;;;;15.94;34.13;99082.56;105056;1259;62465;-63
2024/01/02 05:33:22;;;;;;;1.10;0.20;;;;;;;15.95;34.17;99082.22;105178;1257;59739;-62
2024/01/02 05:35:49;;;;;;;1.20;0.20;;;;;;;15.86;34.18;99089.36;105784;1261;59697;-64
2024/01/02 05:38:17;;;;;;;0.80;0.20;;;;;;;15.76;34.12;99094.61;105149;1260;64111;-62
2024/01/02 05:40:45;;;;;;;0.20;0.10;;;;;;;15.71;33.96;99090.80;105044;1256;60331;-62
2024/01/02 05:43:13;;;;;;;0.70;0.20;;;;;;;15.60;34.14;99097.21;105275;1260;62585;-59
2024/01/02 05:45:41;;;;;;;2.10;0.30;;;;;;;15.54;34.27;99107.21;105190;1254;59774;-58
2024/01/02 05:48:09;;;;;;;2.90;0.50;;;;;;;15.57;34.16;99118.98;105109;1260;59731;-58
2024/01/02 05:50:38;;;;;;;4.00;0.60;;;;;;;15.56;34.08;99126.73;105403;1260;63713;-60
2024/01/02 05:53:09;;;;;;;2.30;0.50;;;;;;;15.60;34.03;99116.36;105437;1258;61389;-59
2024/01/02 05:55:36;;;;;;;4.30;1.40;;;;;;;15.61;34.11;99119.54;105408;1258;62441;-60
2024/01/02 05:58:04;;;;;;;5.90;1.70;;;;;;;15.59;33.97;99123.53;105450;1262;59724;-60
2024/01/02 06:00:32;;;;;;;7.50;3.20;;;;;;;15.53;34.19;99137.02;105208;1260;59612;-57
2024/01/02 06:03:00;;;;;;;5.60;2.40;;;;;;;15.40;34.19;99150.71;105309;1258;64181;-58
2024/01/02 06:05:28;;;;;;;8.50;2.60;;;;;;;15.37;34.24;99137.96;105217;1257;61426;-59
2024/01/02 06:07:56;;;;;;;9.60;2.90;;;;;;;15.44;34.10;99140.37;105684;1256;63757;-57
2024/01/02 06:10:23;;;;;;;6.30;2.10;;;;;;;15.44;33.97;99158.15;105298;1260;59759;-59
2024/01/02 06:12:51;;;;;;;5.80;1.60;;;;;;;15.46;33.82;99142.80;105369;1257;59752;-59
2024/01/02 06:15:18;;;;;;;3.30;1.00;;;;;;;15.46;33.90;99143.86;105225;1260;64285;-59
2024/01/02 06:17:46;;;;;;;4.20;1.50;;;;;;;15.44;33.78;99146.02;105251;1258;62004;-58
2024/01/02 06:20:14;;;;;;;4.70;2.30;;;;;;;15.41;33.79;99152.00;105221;1258;64236;-58
2024/01/02 06:22:42;;;;;;;3.60;1.30;;;;;;;15.27;33.81;99160.45;105953;1258;59704;-59
2024/01/02 06:25:10;;;;;;;4.40;1.30;;;;;;;15.23;33.79;99160.33;105201;1260;59603;-59
2024/01/02 06:27:37;;;;;;;3.70;0.80;;;;;;;15.38;33.75;99164.93;105140;1254;62882;-62
2024/01/02 06:30:07;;;;;;;2.50;0.60;;;;;;;15.50;33.51;99168.13;106065;1258;61398;-63
2024/01/02 06:32:34;;;;;;;1.90;0.60;;;;;;;15.44;33.28;99173.92;105378;1260;62619;-60
2024/01/02 06:35:03;;;;;;;0.80;0.10;;;;;;;15.39;33.18;99173.95;105426;1258;60584;-57
2024/01/02 06:37:31;;;;;;;3.50;1.30;;;;;;;15.35;33.29;99177.81;105316;1261;60292;-64
2024/01/02 06:39:58;;;;;;;1.80;0.40;;;;;;;15.30;33.31;99187.27;105223;1260;65430;-58
2024/01/02 06:42:26;;;;;;;2.00;0.40;;;;;;;15.18;33.34;99190.95;105242;1257;61348;-58
2024/01/02 06:44:53;;;;;;;2.30;0.50;;;;;;;15.16;33.22;99182.96;105201;1260;62436;-57
2024/01/02 06:47:21;;;;;;;1.40;0.40;;;;;;;15.18;33.26;99194.98;105119;1261;60780;-58
2024/01/02 06:49:48;;;;;;;3.50;0.80;;;;;;;15.09;33.10;99200.39;105214;1261;60427;-55
2024/01/02 06:52:16;;;;;;;0.40;0.10;;;;;;;15.14;33.09;99207.32;105896;1261;72209;-58
2024/01/02 06:54:45;;;;;;;3.60;1.40;;;;;;;15.22;32.97;99213.67;105155;1257;61485;-58
2024/01/02 06:57:12;;;;;;;7.80;1.00;;;;;;;15.31;32.98;99209.23;105106;1257;64220;-59
2024/01/02 06:59:40;;;;;;;2.10;0.30;;;;;;;15.27;32.95;99212.16;105140;1257;60439;-58
2024/01/02 07:02:07;;;;;;;0.80;0.20;;;;;;;15.24;32.91;99227.15;105162;1255;60495;-57
2024/01/02 07:04:37;;;;;;;0.90;0.20;;;;;;;15.20;33.00;99228.12;105189;1257;63689;-56
2024/01/02 07:07:04;;;;;;;1.00;0.20;;;;;;;15.19;33.07;99219.43;105161;1257;61972;-58
2024/01/02 07:09:32;;;;;;;1.30;0.20;;;;;;;15.19;32.97;99233.31;105127;1257;62535;-58
2024/01/02 07:11:59;;;;;;;1.20;0.40;;;;;;;15.14;33.00;99237.44;105207;1257;60840;-57
2024/01/02 07:14:27;;;;;;;0.50;0.10;;;;;;;15.01;32.97;99241.85;105113;1256;60624;-65
2024/01/02 07:16:54;;;;;;;1.60;0.30;;;;;;;15.08;32.98;99243.34;105675;1260;65405;-57
2024/01/02 07:19:22;;;;;;;2.10;0.70;;;;;;;15.18;32.78;99236.39;105151;1262;61441;-57
2024/01/02 07:21:50;;;;;;;1.20;0.30;;;;;;;15.25;32.71;99250.16;105196;1256;63781;-58
2024/01/02 07:24:17;;;;;;;0.60;0.10;;;;;;;15.30;32.53;99246.41;105182;1260;61669;-57
2024/01/02 07:26:45;;;;;;;0.70;0.10;;;;;;;15.23;32.58;99248.20;105858;1256;60555;-56
2024/01/02 07:29:12;;;;;;;2.70;0.50;;;;;;;15.16;32.56;99258.67;105243;1256;64162;-59
2024/01/02 07:31:40;;;;;;;1.60;0.30;;;;;;;15.13;32.64;99263.07;105139;1258;60553;-56
2024/01/02 07:34:08;;;;;;;2.90;0.90;;;;;;;15.14;32.57;99263.36;105163;1257;62483;-55
2024/01/02 07:36:35;;;;;;;0.80;0.20;;;;;;;15.11;32.52;99267.27;105125;1257;60560;-55
2024/01/02 07:39:03;;;;;;;2.20;0.20;;;;;;;14.99;32.63;99284.11;105106;1257;59149;-58
2024/01/02 07:41:31;;;;;;;2.00;0.80;;;;;;;14.87;32.64;99297.16;105456;1256;64882;-56
2024/01/02 07:43:59;;;;;;;0.90;0.20;;;;;;;14.77;32.59;99300.48;105216;1257;61596;-60
2024/01/02 07:46:27;;;;;;;1.00;0.20;;;;;;;14.88;32.54;99285.46;105116;1258;62628;-59
2024/01/02 07:48:55;;;;;;;1.60;0.30;;;;;;;14.98;32.40;99288.17;105710;1257;60447;-59
2024/01/02 07:51:23;;;;;;;1.80;0.30;;;;;;;15.05;32.25;99299.86;105763;1261;60469;-57
2024/01/02 07:53:51;;;;;;;1.60;0.10;;;;;;;14.97;32.27;99310.86;105174;1262;65579;-58
2024/01/02 07:56:19;;;;;;;0.90;0.20;;;;;;;14.83;32.40;99311.59;105151;1256;64491;-61
2024/01/02 07:58:47;;;;;;;1.50;0.40;;;;;;;14.78;32.51;99324.73;105730;1257;63769;-59
2024/01/02 08:01:16;;;;;;;2.10;0.40;;;;;;;14.79;32.62;99326.17;105144;1257;60516;-58
2024/01/02 08:03:44;;;;;;;1.10;0.20;;;;;;;14.80;32.57;99327.27;105257;1260;60362;-59
2024/01/02 08:06:13;;;;;;;2.20;0.60;;;;;;;14.79;32.63;99326.87;105300;1260;64943;-59
2024/01/02 08:08:40;;;;;;;1.00;0.40;;;;;;;14.80;32.66;99330.80;105179;1257;61641;-60
2024/01/02 08:11:09;;;;;;;0.90;0.20;;;;;;;14.83;32.86;99330.86;105163;1256;63727;-58
2024/01/02 08:13:36;;;;;;;1.10;0.40;;;;;;;14.92;33.28;99333.66;105252;1257;60453;-58
2024/01/02 08:16:05;;;;;;;0.70;0.20;;;;;;;15.05;32.80;99346.52;105223;1257;60443;-57
2024/01/02 08:18:39;;;;;;;0.70;0.20;;;;;;;15.10;32.10;99347.01;105595;1262;63635;-57
2024/01/02 08:21:08;;;;;;;2.30;0.20;;;;;;;15.00;31.88;99364.05;105234;1254;62362;-59
2024/01/02 08:23:36;;;;;;;2.00;0.10;;;;;;;14.88;32.13;99361.23;105184;1257;63752;-56
2024/01/02 08:26:06;;;;;;;3.40;0.60;;;;;;;14.83;32.48;99353.20;105154;1259;61595;-56
2024/01/02 08:28:34;;;;;;;0.80;0.40;;;;;;;14.64;33.87;99362.27;105378;1256;60457;-56
2024/01/02 08:31:02;;;;;;;0.80;0.20;;;;;;;14.60;33.90;99363.83;105163;1254;64949;-58
2024/01/02 08:33:29;;;;;;;1.10;0.30;;;;;;;14.50;33.12;99362.39;105516;1260;62226;-57
2024/01/02 08:35:57;;;;;;;0.80;0.20;;;;;;;14.40;32.70;99371.64;105579;1256;62487;-57
2024/01/02 08:38:25;;;;;;;1.00;0.30;;;;;;;14.36;32.34;99365.08;105533;1257;60407;-56
2024/01/02 08:40:53;;;;;;;1.40;0.50;;;;;;;14.36;32.11;99377.95;105622;1257;60448;-56
2024/01/02 08:43:20;;;;;;;0.50;0.00;;;;;;;14.43;32.19;99376.98;105776;1257;64218;-60
2024/01/02 08:45:48;;;;;;;1.90;0.40;;;;;;;14.47;32.49;99386.23;105146;1257;61426;-58
2024/01/02 08:48:16;;;;;;;1.40;0.30;;;;;;;14.41;32.74;99385.66;105159;1257;63674;-58
2024/01/02 08:50:44;;;;;;;1.00;0.10;;;;;;;14.37;32.64;99393.32;105123;1257;60998;-60
2024/01/02 08:53:12;;;;;;;2.30;0.30;;;;;;;14.33;32.52;99393.46;105222;1263;60296;-60
2024/01/02 08:55:40;;;;;;;2.10;0.40;;;;;;;14.28;32.26;99399.14;105061;1256;63693;-57
2024/01/02 08:58:08;;;;;;;1.20;0.30;;;;;;;14.26;32.23;99406.05;105267;1260;61526;-58
2024/01/02 09:00:36;;;;;;;2.70;0.70;;;;;;;14.21;32.25;99403.39;105178;1257;64356;-60
2024/01/02 09:03:05;;;;;;;2.10;0.40;;;;;;;14.19;32.23;99412.07;105219;1257;60562;-60
2024/01/02 09:05:33;;;;;;;1.90;0.30;;;;;;;14.16;32.21;99415.22;105432;1256;60632;-69
2024/01/02 09:08:01;;;;;;;2.80;0.50;;;;;;;14.08;32.33;99425.32;105798;1251;65024;-64
2024/01/02 09:10:28;;;;;;;1.20;0.30;;;;;;;13.98;32.33;99430.61;105301;1257;61544;-68
2024/01/02 09:12:56;;;;;;;1.70;0.40;;;;;;;13.91;32.24;99434.52;105415;1254;63837;-67
2024/01/02 09:15:23;;;;;;;2.40;0.60;;;;;;;13.82;32.20;99442.06;105388;1251;60505;-60
2024/01/02 09:17:51;;;;;;;3.20;0.80;;;;;;;13.71;31.94;99439.92;105440;1251;60416;-60
2024/01/02 09:20:19;;;;;;;1.90;0.80;;;;;;;13.69;31.79;99447.55;105467;1253;63688;-65
2024/01/02 09:22:47;;;;;;;2.10;0.50;;;;;;;13.65;31.77;99450.48;105499;1251;61584;-60
2024/01/02 09:25:14;;;;;;;2.70;0.90;;;;;;;13.54;31.75;99455.61;105434;1257;62447;-60
2024/01/02 09:27:43;;;;;;;3.20;0.80;;;;;;;13.44;31.71;99451.63;105554;1254;60549;-60
2024/01/02 09:30:14;;;;;;;2.80;0.80;;;;;;;13.20;31.77;99461.50;105277;1253;60386;-59
2024/01/02 09:32:42;;;;;;;2.70;0.60;;;;;;;13.08;31.82;99458.19;106304;1253;63646;-60
2024/01/02 09:35:10;;;;;;;2.90;1.00;;;;;;;13.07;31.95;99456.52;105391;1254;61521;-59
2024/01/02 09:37:37;;;;;;;3.20;0.60;;;;;;;12.99;31.96;99454.36;105344;1254;71427;-64
2024/01/02 09:40:14;;;;;;;2.10;0.50;;;;;;;12.90;32.16;99448.32;105318;1254;60564;-61
2024/01/02 09:43:04;;;;;;;2.30;0.70;;;;;;;12.85;32.18;99442.49;105424;1257;60664;-66
2024/01/02 09:46:01;;;;;;;2.80;0.70;;;;;;;12.97;32.24;99439.27;105628;1254;65050;-59
2024/01/02 09:49:06;;;;;;;4.20;1.50;;;;;;;13.12;32.04;99444.02;105474;1257;60450;-59
2024/01/02 09:51:48;;;;;;;2.40;0.80;;;;;;;13.06;31.78;99450.98;105516;1257;63841;-58
2024/01/02 09:54:38;;;;;;;3.60;0.90;;;;;;;13.12;31.74;99456.20;105614;1254;60565;-59
2024/01/02 09:57:35;;;;;;;3.30;1.10;;;;;;;13.11;31.63;99461.02;105474;1257;60403;-57
2024/01/02 10:00:11;;;;;;;3.20;1.10;;;;;;;13.06;31.83;99464.96;105545;1254;65523;-59
2024/01/02 10:02:47;;;;;;;2.10;0.70;;;;;;;13.07;31.84;99465.35;109319;1253;61485;-58
2024/01/02 10:05:54;;;;;;;1.90;0.80;;;;;;;13.18;31.70;99464.66;109284;1253;64228;-60
2024/01/02 10:08:40;;;;;;;3.80;1.20;;;;;;;13.23;31.34;99469.17;106793;1256;60533;-59
2024/01/02 10:11:55;;;;;;;2.70;0.80;;;;;;;13.33;30.85;99467.23;105426;1253;60556;-59
2024/01/02 10:14:29;;;;;;;5.40;1.60;;;;;;;13.31;30.86;99459.44;105402;1257;64995;-59
2024/01/02 10:17:09;;;;;;;4.70;1.40;;;;;;;13.23;30.96;99460.09;105843;1254;63723;-60
2024/01/02 10:20:06;;;;;;;2.70;0.60;;;;;;;13.22;30.88;99462.03;105412;1254;63045;-60
2024/01/02 10:22:47;;;;;;;6.60;1.30;;;;;;;13.22;30.83;99460.08;105399;1254;60559;-59
2024/01/02 10:25:18;;;;;;;6.30;1.80;;;;;;;13.00;30.96;99463.10;105382;1258;60408;-57
2024/01/02 10:27:55;;;;;;;3.80;1.00;;;;;;;12.84;31.11;99465.77;106082;1256;63711;-59
2024/01/02 10:30:23;;;;;;;5.10;1.30;;;;;;;12.76;31.16;99466.85;105824;1259;61671;-58
2024/01/02 10:33:42;;;;;;;2.40;0.50;;;;;;;12.78;31.19;99461.88;106008;1253;62603;-58
2024/01/02 10:36:11;;;;;;;3.20;1.10;;;;;;;12.79;31.08;99459.11;105162;1252;60527;-57
2024/01/02 10:38:48;;;;;;;4.30;1.80;;;;;;;12.72;31.12;99454.94;106403;1253;60559;-58
2024/01/02 10:41:21;;;;;;;4.50;1.10;;;;;;;12.70;31.15;99462.71;105511;1253;64902;-58
2024/01/02 10:44:03;;;;;;;3.20;0.80;;;;;;;12.73;31.21;99458.70;105393;1254;61693;-61
2024/01/02 10:46:37;;;;;;;4.20;1.50;;;;;;;12.76;31.17;99460.29;105637;1253;63861;-59
2024/01/02 10:49:25;;;;;;;5.70;1.90;;;;;;;12.75;30.84;99465.36;105735;1254;60533;-59
2024/01/02 10:52:06;;;;;;;2.60;0.90;;;;;;;12.70;30.96;99468.81;105963;1257;60446;-59
2024/01/02 10:55:02;;;;;;;3.00;1.00;;;;;;;12.59;31.18;99468.56;105673;1259;64866;-58
2024/01/02 10:57:46;;;;;;;3.80;1.30;;;;;;;12.52;31.29;99468.27;105695;1252;61544;-58
2024/01/02 11:00:22;;;;;;;4.50;0.90;;;;;;;12.49;31.31;99464.69;105591;1254;63952;-58
2024/01/02 11:03:03;;;;;;;2.90;1.00;;;;;;;12.48;31.35;99466.31;105982;1257;60623;-58
2024/01/02 11:05:33;;;;;;;3.90;1.30;;;;;;;12.48;31.33;99468.67;105571;1258;60493;-58
2024/01/02 11:08:16;;;;;;;4.40;0.80;;;;;;;12.56;31.25;99471.69;105356;1252;65281;-57
2024/01/02 11:10:57;;;;;;;4.70;1.90;;;;;;;12.55;31.41;99470.00;105361;1254;61338;-58
2024/01/02 11:13:29;;;;;;;4.40;1.20;;;;;;;12.56;31.08;99470.14;105843;1257;63738;-62
2024/01/02 11:16:03;;;;;;;4.00;1.30;;;;;;;12.58;31.05;99476.02;105774;1252;60634;-60
2024/01/02 11:18:33;;;;;;;5.40;1.90;;;;;;;12.62;31.19;99485.17;105634;1254;60652;-58
2024/01/02 11:21:07;;;;;;;4.40;1.50;;;;;;;12.59;31.23;99481.56;105686;1253;65538;-60
2024/01/02 11:23:41;;;;;;;4.80;1.40;;;;;;;12.45;31.09;99490.74;105474;1254;60492;-61
2024/01/02 11:26:25;;;;;;;6.90;1.50;;;;;;;12.34;31.17;99481.48;105379;1254;62548;-59
2024/01/02 11:28:53;;;;;;;5.20;1.20;;;;;;;12.26;31.38;99486.17;105921;1254;60610;-60
2024/01/02 11:31:21;;;;;;;3.70;1.40;;;;;;;12.19;31.34;99488.11;105333;1257;61258;-59
2024/01/02 11:34:10;;;;;;;3.90;0.80;;;;;;;12.15;31.10;99490.63;105308;1254;74545;-59
2024/01/02 11:37:05;;;;;;;4.40;1.10;;;;;;;12.16;30.88;99491.39;105390;1255;61897;-58
2024/01/02 11:39:48;;;;;;;2.80;1.00;;;;;;;12.15;30.76;99494.17;105581;1256;62591;-62